sensor_id;sensor_type;location;lat;lon;timestamp;P1;durP1;ratioP1;P2;durP2;ratioP2
72261;SDS011;60173;52.112;8.648;2023-02-04T00:01:32;31.60;;;5.43;;
72261;SDS011;60173;52.112;8.648;2023-02-04T00:03:59;51.13;;;6.15;;
72261;SDS011;60173;52.112;8.648;2023-02-04T00:06:30;44.72;;;5.57;;
72261;SDS011;60173;52.112;8.648;2023-02-04T00:08:59;37.00;;;5.63;;
72261;SDS011;60173;52.112;8.648;2023-02-04T00:11:28;48.88;;;6.05;;
72261;SDS011;60173;52.112;8.648;2023-02-04T00:13:55;39.63;;;6.07;;
72261;SDS011;60173;52.112;8.648;2023-02-04T00:16:21;46.25;;;7.18;;
72261;SDS011;60173;52.112;8.648;2023-02-04T00:18:47;36.25;;;6.38;;
72261;SDS011;60173;52.112;8.648;2023-02-04T00:21:14;39.00;;;6.05;;
72261;SDS011;60173;52.112;8.648;2023-02-04T00:23:40;48.70;;;6.75;;
72261;SDS011;60173;52.112;8.648;2023-02-04T00:26:07;42.22;;;5.78;;
72261;SDS011;60173;52.112;8.648;2023-02-04T00:28:33;46.42;;;7.05;;
72261;SDS011;60173;52.112;8.648;2023-02-04T00:30:59;37.03;;;5.75;;
72261;SDS011;60173;52.112;8.648;2023-02-04T00:33:26;39.53;;;6.53;;
72261;SDS011;60173;52.112;8.648;2023-02-04T00:35:52;37.83;;;6.13;;
72261;SDS011;60173;52.112;8.648;2023-02-04T00:38:19;47.35;;;6.53;;
72261;SDS011;60173;52.112;8.648;2023-02-04T00:40:45;61.20;;;8.35;;
72261;SDS011;60173;52.112;8.648;2023-02-04T00:43:11;46.90;;;6.07;;
72261;SDS011;60173;52.112;8.648;2023-02-04T00:45:37;54.00;;;7.28;;
72261;SDS011;60173;52.112;8.648;2023-02-04T00:48:04;54.33;;;7.30;;
72261;SDS011;60173;52.112;8.648;2023-02-04T00:50:30;45.63;;;7.28;;
72261;SDS011;60173;52.112;8.648;2023-02-04T00:52:57;51.38;;;7.15;;
72261;SDS011;60173;52.112;8.648;2023-02-04T00:55:24;44.25;;;6.00;;
72261;SDS011;60173;52.112;8.648;2023-02-04T00:57:50;40.20;;;6.32;;
72261;SDS011;60173;52.112;8.648;2023-02-04T01:00:16;45.28;;;6.60;;
72261;SDS011;60173;52.112;8.648;2023-02-04T01:02:43;44.25;;;7.18;;
72261;SDS011;60173;52.112;8.648;2023-02-04T01:05:10;48.25;;;7.43;;
72261;SDS011;60173;52.112;8.648;2023-02-04T01:07:36;38.80;;;7.28;;
72261;SDS011;60173;52.112;8.648;2023-02-04T01:10:03;40.25;;;6.25;;
72261;SDS011;60173;52.112;8.648;2023-02-04T01:12:30;48.78;;;7.15;;
72261;SDS011;60173;52.112;8.648;2023-02-04T01:14:59;47.08;;;7.47;;
72261;SDS011;60173;52.112;8.648;2023-02-04T01:17:26;39.03;;;6.95;;
72261;SDS011;60173;52.112;8.648;2023-02-04T01:19:52;40.15;;;6.57;;
72261;SDS011;60173;52.112;8.648;2023-02-04T01:22:19;57.70;;;8.00;;
72261;SDS011;60173;52.112;8.648;2023-02-04T01:24:45;39.75;;;6.90;;
72261;SDS011;60173;52.112;8.648;2023-02-04T01:27:11;38.33;;;6.60;;
72261;SDS011;60173;52.112;8.648;2023-02-04T01:29:38;51.22;;;7.63;;
72261;SDS011;60173;52.112;8.648;2023-02-04T01:32:04;49.67;;;6.72;;
72261;SDS011;60173;52.112;8.648;2023-02-04T01:34:30;50.05;;;6.68;;
72261;SDS011;60173;52.112;8.648;2023-02-04T01:36:57;52.67;;;7.75;;
72261;SDS011;60173;52.112;8.648;2023-02-04T01:39:23;42.67;;;6.45;;
72261;SDS011;60173;52.112;8.648;2023-02-04T01:41:49;46.35;;;6.57;;
72261;SDS011;60173;52.112;8.648;2023-02-04T01:44:16;49.42;;;7.68;;
72261;SDS011;60173;52.112;8.648;2023-02-04T01:46:42;44.85;;;7.25;;
72261;SDS011;60173;52.112;8.648;2023-02-04T01:49:08;52.45;;;7.80;;
72261;SDS011;60173;52.112;8.648;2023-02-04T01:51:36;63.63;;;7.63;;
72261;SDS011;60173;52.112;8.648;2023-02-04T01:54:02;46.08;;;7.25;;
72261;SDS011;60173;52.112;8.648;2023-02-04T01:56:29;32.70;;;6.35;;
72261;SDS011;60173;52.112;8.648;2023-02-04T01:58:56;49.55;;;7.35;;
72261;SDS011;60173;52.112;8.648;2023-02-04T02:01:34;39.03;;;6.57;;
72261;SDS011;60173;52.112;8.648;2023-02-04T02:04:01;39.88;;;6.35;;
72261;SDS011;60173;52.112;8.648;2023-02-04T02:06:28;51.78;;;7.20;;
72261;SDS011;60173;52.112;8.648;2023-02-04T02:08:54;47.00;;;7.28;;
72261;SDS011;60173;52.112;8.648;2023-02-04T02:11:21;45.65;;;7.05;;
72261;SDS011;60173;52.112;8.648;2023-02-04T02:13:47;48.25;;;7.38;;
72261;SDS011;60173;52.112;8.648;2023-02-04T02:16:14;51.33;;;7.43;;
72261;SDS011;60173;52.112;8.648;2023-02-04T02:18:40;66.90;;;7.47;;
72261;SDS011;60173;52.112;8.648;2023-02-04T02:21:08;51.65;;;6.85;;
72261;SDS011;60173;52.112;8.648;2023-02-04T02:23:44;50.70;;;7.55;;
72261;SDS011;60173;52.112;8.648;2023-02-04T02:26:18;43.03;;;5.85;;
72261;SDS011;60173;52.112;8.648;2023-02-04T02:28:47;57.30;;;8.50;;
72261;SDS011;60173;52.112;8.648;2023-02-04T02:31:16;52.78;;;7.20;;
72261;SDS011;60173;52.112;8.648;2023-02-04T02:33:45;51.30;;;6.88;;
72261;SDS011;60173;52.112;8.648;2023-02-04T02:36:12;50.65;;;6.60;;
72261;SDS011;60173;52.112;8.648;2023-02-04T02:38:38;41.38;;;6.90;;
72261;SDS011;60173;52.112;8.648;2023-02-04T02:41:05;47.95;;;7.35;;
72261;SDS011;60173;52.112;8.648;2023-02-04T02:43:32;47.55;;;5.63;;
72261;SDS011;60173;52.112;8.648;2023-02-04T02:46:00;32.45;;;5.53;;
72261;SDS011;60173;52.112;8.648;2023-02-04T02:48:27;37.38;;;4.80;;
72261;SDS011;60173;52.112;8.648;2023-02-04T02:50:54;30.63;;;4.68;;
72261;SDS011;60173;52.112;8.648;2023-02-04T02:53:20;33.47;;;6.07;;
72261;SDS011;60173;52.112;8.648;2023-02-04T02:55:47;33.47;;;5.25;;
72261;SDS011;60173;52.112;8.648;2023-02-04T02:58:32;20.85;;;2.90;;
72261;SDS011;60173;52.112;8.648;2023-02-04T03:01:01;29.40;;;4.63;;
72261;SDS011;60173;52.112;8.648;2023-02-04T03:03:52;31.27;;;4.00;;
72261;SDS011;60173;52.112;8.648;2023-02-04T03:06:19;27.45;;;4.22;;
72261;SDS011;60173;52.112;8.648;2023-02-04T03:08:49;26.00;;;3.53;;
72261;SDS011;60173;52.112;8.648;2023-02-04T03:11:17;27.42;;;3.70;;
72261;SDS011;60173;52.112;8.648;2023-02-04T03:13:43;37.97;;;4.80;;
72261;SDS011;60173;52.112;8.648;2023-02-04T03:16:10;25.65;;;3.55;;
72261;SDS011;60173;52.112;8.648;2023-02-04T03:18:36;22.40;;;3.67;;
72261;SDS011;60173;52.112;8.648;2023-02-04T03:21:04;38.65;;;3.95;;
72261;SDS011;60173;52.112;8.648;2023-02-04T03:23:32;20.88;;;3.28;;
72261;SDS011;60173;52.112;8.648;2023-02-04T03:26:00;27.40;;;3.60;;
72261;SDS011;60173;52.112;8.648;2023-02-04T03:28:26;25.85;;;3.58;;
72261;SDS011;60173;52.112;8.648;2023-02-04T03:30:53;35.20;;;4.05;;
72261;SDS011;60173;52.112;8.648;2023-02-04T03:33:19;28.38;;;3.80;;
72261;SDS011;60173;52.112;8.648;2023-02-04T03:35:45;22.90;;;3.78;;
72261;SDS011;60173;52.112;8.648;2023-02-04T03:38:12;18.42;;;3.42;;
72261;SDS011;60173;52.112;8.648;2023-02-04T03:40:38;21.58;;;2.88;;
72261;SDS011;60173;52.112;8.648;2023-02-04T03:43:04;24.42;;;3.72;;
72261;SDS011;60173;52.112;8.648;2023-02-04T03:45:31;21.58;;;2.78;;
72261;SDS011;60173;52.112;8.648;2023-02-04T03:48:09;24.77;;;2.60;;
72261;SDS011;60173;52.112;8.648;2023-02-04T03:50:36;17.48;;;2.67;;
72261;SDS011;60173;52.112;8.648;2023-02-04T03:53:02;13.80;;;2.90;;
72261;SDS011;60173;52.112;8.648;2023-02-04T03:55:28;21.83;;;3.75;;
72261;SDS011;60173;52.112;8.648;2023-02-04T03:57:55;15.13;;;2.38;;
72261;SDS011;60173;52.112;8.648;2023-02-04T04:00:21;15.57;;;2.50;;
72261;SDS011;60173;52.112;8.648;2023-02-04T04:02:47;15.68;;;2.47;;
72261;SDS011;60173;52.112;8.648;2023-02-04T04:05:14;24.58;;;3.45;;
72261;SDS011;60173;52.112;8.648;2023-02-04T04:07:40;18.13;;;2.65;;
72261;SDS011;60173;52.112;8.648;2023-02-04T04:10:07;14.68;;;2.33;;
72261;SDS011;60173;52.112;8.648;2023-02-04T04:12:33;16.80;;;2.58;;
72261;SDS011;60173;52.112;8.648;2023-02-04T04:15:00;16.08;;;2.75;;
72261;SDS011;60173;52.112;8.648;2023-02-04T04:17:26;20.95;;;2.80;;
72261;SDS011;60173;52.112;8.648;2023-02-04T04:19:52;14.73;;;2.15;;
72261;SDS011;60173;52.112;8.648;2023-02-04T04:22:19;16.23;;;2.95;;
72261;SDS011;60173;52.112;8.648;2023-02-04T04:24:45;11.93;;;2.13;;
72261;SDS011;60173;52.112;8.648;2023-02-04T04:27:11;17.83;;;2.60;;
72261;SDS011;60173;52.112;8.648;2023-02-04T04:29:37;17.80;;;2.30;;
72261;SDS011;60173;52.112;8.648;2023-02-04T04:32:04;17.73;;;2.35;;
72261;SDS011;60173;52.112;8.648;2023-02-04T04:34:30;14.63;;;2.55;;
72261;SDS011;60173;52.112;8.648;2023-02-04T04:36:57;11.98;;;2.22;;
72261;SDS011;60173;52.112;8.648;2023-02-04T04:39:23;20.70;;;2.88;;
72261;SDS011;60173;52.112;8.648;2023-02-04T04:41:49;14.32;;;2.65;;
72261;SDS011;60173;52.112;8.648;2023-02-04T04:44:16;11.45;;;2.50;;
72261;SDS011;60173;52.112;8.648;2023-02-04T04:46:42;15.07;;;2.88;;
72261;SDS011;60173;52.112;8.648;2023-02-04T04:49:08;13.55;;;2.45;;
72261;SDS011;60173;52.112;8.648;2023-02-04T04:51:35;10.25;;;2.00;;
72261;SDS011;60173;52.112;8.648;2023-02-04T04:54:01;15.40;;;2.20;;
72261;SDS011;60173;52.112;8.648;2023-02-04T04:56:27;13.02;;;2.00;;
72261;SDS011;60173;52.112;8.648;2023-02-04T04:58:54;17.15;;;2.63;;
72261;SDS011;60173;52.112;8.648;2023-02-04T05:01:20;13.48;;;2.10;;
72261;SDS011;60173;52.112;8.648;2023-02-04T05:03:47;16.48;;;3.20;;
72261;SDS011;60173;52.112;8.648;2023-02-04T05:06:13;18.33;;;2.35;;
72261;SDS011;60173;52.112;8.648;2023-02-04T05:08:39;15.18;;;2.75;;
72261;SDS011;60173;52.112;8.648;2023-02-04T05:11:06;8.52;;;2.20;;
72261;SDS011;60173;52.112;8.648;2023-02-04T05:13:32;15.13;;;2.53;;
72261;SDS011;60173;52.112;8.648;2023-02-04T05:15:59;18.08;;;2.95;;
72261;SDS011;60173;52.112;8.648;2023-02-04T05:18:25;10.90;;;2.03;;
72261;SDS011;60173;52.112;8.648;2023-02-04T05:20:51;10.50;;;2.53;;
72261;SDS011;60173;52.112;8.648;2023-02-04T05:23:18;16.08;;;2.47;;
72261;SDS011;60173;52.112;8.648;2023-02-04T05:25:44;13.43;;;2.42;;
72261;SDS011;60173;52.112;8.648;2023-02-04T05:28:10;14.85;;;2.13;;
72261;SDS011;60173;52.112;8.648;2023-02-04T05:30:37;13.38;;;2.45;;
72261;SDS011;60173;52.112;8.648;2023-02-04T05:33:03;18.08;;;2.72;;
72261;SDS011;60173;52.112;8.648;2023-02-04T05:35:30;17.45;;;3.13;;
72261;SDS011;60173;52.112;8.648;2023-02-04T05:37:56;9.65;;;2.15;;
72261;SDS011;60173;52.112;8.648;2023-02-04T05:40:23;13.50;;;3.08;;
72261;SDS011;60173;52.112;8.648;2023-02-04T05:42:51;14.60;;;3.05;;
72261;SDS011;60173;52.112;8.648;2023-02-04T05:45:18;18.05;;;3.20;;
72261;SDS011;60173;52.112;8.648;2023-02-04T05:47:44;16.42;;;3.03;;
72261;SDS011;60173;52.112;8.648;2023-02-04T05:50:11;16.83;;;3.22;;
72261;SDS011;60173;52.112;8.648;2023-02-04T05:52:39;21.95;;;3.35;;
72261;SDS011;60173;52.112;8.648;2023-02-04T05:55:05;15.43;;;2.78;;
72261;SDS011;60173;52.112;8.648;2023-02-04T05:57:32;16.10;;;3.10;;
72261;SDS011;60173;52.112;8.648;2023-02-04T05:59:59;20.73;;;2.65;;
72261;SDS011;60173;52.112;8.648;2023-02-04T06:02:25;13.35;;;2.63;;
72261;SDS011;60173;52.112;8.648;2023-02-04T06:04:53;15.98;;;2.50;;
72261;SDS011;60173;52.112;8.648;2023-02-04T06:07:19;15.60;;;3.08;;
72261;SDS011;60173;52.112;8.648;2023-02-04T06:09:45;12.95;;;3.15;;
72261;SDS011;60173;52.112;8.648;2023-02-04T06:12:12;15.73;;;2.95;;
72261;SDS011;60173;52.112;8.648;2023-02-04T06:14:38;15.93;;;2.80;;
72261;SDS011;60173;52.112;8.648;2023-02-04T06:17:04;18.30;;;3.45;;
72261;SDS011;60173;52.112;8.648;2023-02-04T06:19:31;14.20;;;2.90;;
72261;SDS011;60173;52.112;8.648;2023-02-04T06:21:57;27.02;;;3.42;;
72261;SDS011;60173;52.112;8.648;2023-02-04T06:24:23;14.57;;;2.83;;
72261;SDS011;60173;52.112;8.648;2023-02-04T06:26:50;20.48;;;3.85;;
72261;SDS011;60173;52.112;8.648;2023-02-04T06:29:16;14.88;;;2.75;;
72261;SDS011;60173;52.112;8.648;2023-02-04T06:31:42;16.42;;;3.17;;
72261;SDS011;60173;52.112;8.648;2023-02-04T06:34:09;14.30;;;2.92;;
72261;SDS011;60173;52.112;8.648;2023-02-04T06:36:35;14.50;;;3.25;;
72261;SDS011;60173;52.112;8.648;2023-02-04T06:39:01;18.33;;;2.80;;
72261;SDS011;60173;52.112;8.648;2023-02-04T06:41:28;17.02;;;3.20;;
72261;SDS011;60173;52.112;8.648;2023-02-04T06:43:54;10.52;;;3.25;;
72261;SDS011;60173;52.112;8.648;2023-02-04T06:46:20;9.43;;;2.63;;
72261;SDS011;60173;52.112;8.648;2023-02-04T06:48:47;8.80;;;3.00;;
72261;SDS011;60173;52.112;8.648;2023-02-04T06:51:13;10.35;;;2.90;;
72261;SDS011;60173;52.112;8.648;2023-02-04T06:53:40;9.20;;;2.90;;
72261;SDS011;60173;52.112;8.648;2023-02-04T06:56:06;10.52;;;3.72;;
72261;SDS011;60173;52.112;8.648;2023-02-04T06:58:32;15.68;;;3.42;;
72261;SDS011;60173;52.112;8.648;2023-02-04T07:00:59;12.57;;;3.47;;
72261;SDS011;60173;52.112;8.648;2023-02-04T07:03:25;13.40;;;3.10;;
72261;SDS011;60173;52.112;8.648;2023-02-04T07:05:52;12.05;;;3.40;;
72261;SDS011;60173;52.112;8.648;2023-02-04T07:08:18;12.80;;;3.08;;
72261;SDS011;60173;52.112;8.648;2023-02-04T07:10:44;20.70;;;3.85;;
72261;SDS011;60173;52.112;8.648;2023-02-04T07:13:11;8.43;;;3.42;;
72261;SDS011;60173;52.112;8.648;2023-02-04T07:15:37;13.88;;;3.05;;
72261;SDS011;60173;52.112;8.648;2023-02-04T07:18:03;14.48;;;3.78;;
72261;SDS011;60173;52.112;8.648;2023-02-04T07:20:30;10.65;;;4.70;;
72261;SDS011;60173;52.112;8.648;2023-02-04T07:22:57;9.70;;;4.10;;
72261;SDS011;60173;52.112;8.648;2023-02-04T07:25:23;20.00;;;4.50;;
72261;SDS011;60173;52.112;8.648;2023-02-04T07:27:49;13.98;;;3.78;;
72261;SDS011;60173;52.112;8.648;2023-02-04T07:30:16;12.15;;;4.78;;
72261;SDS011;60173;52.112;8.648;2023-02-04T07:32:42;9.90;;;3.88;;
72261;SDS011;60173;52.112;8.648;2023-02-04T07:35:09;11.25;;;3.83;;
72261;SDS011;60173;52.112;8.648;2023-02-04T07:37:35;13.32;;;3.83;;
72261;SDS011;60173;52.112;8.648;2023-02-04T07:40:02;12.57;;;4.22;;
72261;SDS011;60173;52.112;8.648;2023-02-04T07:42:28;11.18;;;3.65;;
72261;SDS011;60173;52.112;8.648;2023-02-04T07:44:54;13.75;;;4.47;;
72261;SDS011;60173;52.112;8.648;2023-02-04T07:47:21;10.88;;;4.82;;
72261;SDS011;60173;52.112;8.648;2023-02-04T07:49:47;13.52;;;4.55;;
72261;SDS011;60173;52.112;8.648;2023-02-04T07:52:13;10.77;;;4.30;;
72261;SDS011;60173;52.112;8.648;2023-02-04T07:54:40;14.13;;;6.88;;
72261;SDS011;60173;52.112;8.648;2023-02-04T07:57:06;11.07;;;4.43;;
72261;SDS011;60173;52.112;8.648;2023-02-04T07:59:32;10.32;;;4.30;;
72261;SDS011;60173;52.112;8.648;2023-02-04T08:01:58;11.32;;;4.70;;
72261;SDS011;60173;52.112;8.648;2023-02-04T08:04:26;10.80;;;4.20;;
72261;SDS011;60173;52.112;8.648;2023-02-04T08:06:53;12.00;;;4.07;;
72261;SDS011;60173;52.112;8.648;2023-02-04T08:09:25;9.45;;;4.03;;
72261;SDS011;60173;52.112;8.648;2023-02-04T08:11:54;13.73;;;4.13;;
72261;SDS011;60173;52.112;8.648;2023-02-04T08:14:22;11.65;;;3.83;;
72261;SDS011;60173;52.112;8.648;2023-02-04T08:16:48;8.93;;;3.97;;
72261;SDS011;60173;52.112;8.648;2023-02-04T08:19:14;11.07;;;3.70;;
72261;SDS011;60173;52.112;8.648;2023-02-04T08:21:41;10.07;;;3.53;;
72261;SDS011;60173;52.112;8.648;2023-02-04T08:24:07;8.55;;;3.40;;
72261;SDS011;60173;52.112;8.648;2023-02-04T08:26:33;7.93;;;3.20;;
72261;SDS011;60173;52.112;8.648;2023-02-04T08:29:00;6.43;;;3.00;;
72261;SDS011;60173;52.112;8.648;2023-02-04T08:31:26;9.27;;;3.03;;
72261;SDS011;60173;52.112;8.648;2023-02-04T08:33:52;7.35;;;3.03;;
72261;SDS011;60173;52.112;8.648;2023-02-04T08:36:18;5.47;;;2.60;;
72261;SDS011;60173;52.112;8.648;2023-02-04T08:38:45;11.00;;;2.80;;
72261;SDS011;60173;52.112;8.648;2023-02-04T08:41:11;9.10;;;2.85;;
72261;SDS011;60173;52.112;8.648;2023-02-04T08:43:38;8.20;;;2.65;;
72261;SDS011;60173;52.112;8.648;2023-02-04T08:46:04;6.72;;;2.50;;
72261;SDS011;60173;52.112;8.648;2023-02-04T08:48:31;8.68;;;2.63;;
72261;SDS011;60173;52.112;8.648;2023-02-04T08:50:57;8.10;;;2.72;;
72261;SDS011;60173;52.112;8.648;2023-02-04T08:53:23;3.88;;;2.10;;
72261;SDS011;60173;52.112;8.648;2023-02-04T08:55:50;5.43;;;2.50;;
72261;SDS011;60173;52.112;8.648;2023-02-04T08:58:16;4.35;;;2.25;;
72261;SDS011;60173;52.112;8.648;2023-02-04T09:00:42;4.72;;;2.03;;
72261;SDS011;60173;52.112;8.648;2023-02-04T09:03:09;6.60;;;2.00;;
72261;SDS011;60173;52.112;8.648;2023-02-04T09:05:35;4.55;;;2.05;;
72261;SDS011;60173;52.112;8.648;2023-02-04T09:08:01;8.18;;;2.30;;
72261;SDS011;60173;52.112;8.648;2023-02-04T09:10:28;2.90;;;2.08;;
72261;SDS011;60173;52.112;8.648;2023-02-04T09:12:54;7.30;;;1.98;;
72261;SDS011;60173;52.112;8.648;2023-02-04T09:15:21;4.30;;;2.00;;
72261;SDS011;60173;52.112;8.648;2023-02-04T09:17:49;5.75;;;2.22;;
72261;SDS011;60173;52.112;8.648;2023-02-04T09:20:16;4.05;;;1.98;;
72261;SDS011;60173;52.112;8.648;2023-02-04T09:22:42;6.13;;;2.10;;
72261;SDS011;60173;52.112;8.648;2023-02-04T09:25:09;5.05;;;2.47;;
72261;SDS011;60173;52.112;8.648;2023-02-04T09:27:35;4.00;;;2.40;;
72261;SDS011;60173;52.112;8.648;2023-02-04T09:30:01;5.65;;;2.60;;
72261;SDS011;60173;52.112;8.648;2023-02-04T09:32:28;4.85;;;2.30;;
72261;SDS011;60173;52.112;8.648;2023-02-04T09:34:54;2.83;;;2.10;;
72261;SDS011;60173;52.112;8.648;2023-02-04T09:37:20;3.47;;;2.03;;
72261;SDS011;60173;52.112;8.648;2023-02-04T09:39:47;4.75;;;2.20;;
72261;SDS011;60173;52.112;8.648;2023-02-04T09:42:13;3.45;;;1.80;;
72261;SDS011;60173;52.112;8.648;2023-02-04T09:44:40;2.83;;;1.83;;
72261;SDS011;60173;52.112;8.648;2023-02-04T09:47:08;3.55;;;1.65;;
72261;SDS011;60173;52.112;8.648;2023-02-04T09:49:36;4.53;;;2.30;;
72261;SDS011;60173;52.112;8.648;2023-02-04T09:52:03;5.72;;;1.85;;
72261;SDS011;60173;52.112;8.648;2023-02-04T09:54:29;5.00;;;2.08;;
72261;SDS011;60173;52.112;8.648;2023-02-04T09:56:56;5.53;;;2.33;;
72261;SDS011;60173;52.112;8.648;2023-02-04T09:59:22;4.30;;;2.08;;
72261;SDS011;60173;52.112;8.648;2023-02-04T10:02:01;2.67;;;1.70;;
72261;SDS011;60173;52.112;8.648;2023-02-04T10:04:36;3.23;;;2.10;;
72261;SDS011;60173;52.112;8.648;2023-02-04T10:07:04;3.05;;;2.00;;
72261;SDS011;60173;52.112;8.648;2023-02-04T10:09:37;6.28;;;2.00;;
72261;SDS011;60173;52.112;8.648;2023-02-04T10:12:05;2.70;;;1.75;;
72261;SDS011;60173;52.112;8.648;2023-02-04T10:14:32;3.13;;;1.45;;
72261;SDS011;60173;52.112;8.648;2023-02-04T10:16:59;2.30;;;1.42;;
72261;SDS011;60173;52.112;8.648;2023-02-04T10:19:27;3.67;;;1.80;;
72261;SDS011;60173;52.112;8.648;2023-02-04T10:21:55;1.45;;;1.10;;
72261;SDS011;60173;52.112;8.648;2023-02-04T10:24:23;3.80;;;1.20;;
72261;SDS011;60173;52.112;8.648;2023-02-04T10:26:50;2.58;;;1.33;;
72261;SDS011;60173;52.112;8.648;2023-02-04T10:29:18;2.08;;;1.27;;
72261;SDS011;60173;52.112;8.648;2023-02-04T10:31:47;2.60;;;1.50;;
72261;SDS011;60173;52.112;8.648;2023-02-04T10:34:15;4.72;;;1.77;;
72261;SDS011;60173;52.112;8.648;2023-02-04T10:36:45;3.33;;;2.10;;
72261;SDS011;60173;52.112;8.648;2023-02-04T10:39:20;3.25;;;1.40;;
72261;SDS011;60173;52.112;8.648;2023-02-04T10:44:17;2.83;;;1.63;;
72261;SDS011;60173;52.112;8.648;2023-02-04T10:46:45;4.15;;;1.88;;
72261;SDS011;60173;52.112;8.648;2023-02-04T10:49:16;2.38;;;1.70;;
72261;SDS011;60173;52.112;8.648;2023-02-04T10:51:48;2.58;;;1.60;;
72261;SDS011;60173;52.112;8.648;2023-02-04T10:54:15;2.85;;;1.95;;
72261;SDS011;60173;52.112;8.648;2023-02-04T10:56:43;2.55;;;1.60;;
72261;SDS011;60173;52.112;8.648;2023-02-04T10:59:12;2.00;;;1.35;;
72261;SDS011;60173;52.112;8.648;2023-02-04T11:01:47;3.25;;;1.35;;
72261;SDS011;60173;52.112;8.648;2023-02-04T11:04:14;2.50;;;1.30;;
72261;SDS011;60173;52.112;8.648;2023-02-04T11:06:40;1.65;;;1.17;;
72261;SDS011;60173;52.112;8.648;2023-02-04T11:09:09;2.55;;;1.17;;
72261;SDS011;60173;52.112;8.648;2023-02-04T11:11:38;1.85;;;1.20;;
72261;SDS011;60173;52.112;8.648;2023-02-04T11:14:26;2.65;;;1.42;;
72261;SDS011;60173;52.112;8.648;2023-02-04T11:16:54;2.22;;;1.20;;
72261;SDS011;60173;52.112;8.648;2023-02-04T11:19:37;1.98;;;1.20;;
72261;SDS011;60173;52.112;8.648;2023-02-04T11:22:05;2.78;;;1.27;;
72261;SDS011;60173;52.112;8.648;2023-02-04T11:24:44;1.55;;;1.00;;
72261;SDS011;60173;52.112;8.648;2023-02-04T11:27:24;2.65;;;1.40;;
72261;SDS011;60173;52.112;8.648;2023-02-04T11:30:03;2.45;;;1.30;;
72261;SDS011;60173;52.112;8.648;2023-02-04T11:32:33;5.05;;;1.58;;
72261;SDS011;60173;52.112;8.648;2023-02-04T11:37:37;3.22;;;1.60;;
72261;SDS011;60173;52.112;8.648;2023-02-04T11:42:57;2.45;;;1.38;;
72261;SDS011;60173;52.112;8.648;2023-02-04T11:45:35;2.45;;;1.48;;
72261;SDS011;60173;52.112;8.648;2023-02-04T11:48:03;3.47;;;1.63;;
72261;SDS011;60173;52.112;8.648;2023-02-04T11:50:39;2.35;;;1.20;;
72261;SDS011;60173;52.112;8.648;2023-02-04T11:53:07;3.03;;;1.40;;
72261;SDS011;60173;52.112;8.648;2023-02-04T11:55:36;1.70;;;1.40;;
72261;SDS011;60173;52.112;8.648;2023-02-04T11:58:13;3.70;;;1.60;;
72261;SDS011;60173;52.112;8.648;2023-02-04T12:00:41;2.00;;;1.17;;
72261;SDS011;60173;52.112;8.648;2023-02-04T12:03:19;1.88;;;1.20;;
72261;SDS011;60173;52.112;8.648;2023-02-04T12:05:49;3.58;;;1.40;;
72261;SDS011;60173;52.112;8.648;2023-02-04T12:10:59;1.80;;;1.20;;
72261;SDS011;60173;52.112;8.648;2023-02-04T12:13:44;1.70;;;1.10;;
72261;SDS011;60173;52.112;8.648;2023-02-04T12:16:13;2.58;;;1.30;;
72261;SDS011;60173;52.112;8.648;2023-02-04T12:18:39;3.83;;;1.42;;
72261;SDS011;60173;52.112;8.648;2023-02-04T12:21:05;2.42;;;1.40;;
72261;SDS011;60173;52.112;8.648;2023-02-04T12:23:32;1.85;;;1.30;;
72261;SDS011;60173;52.112;8.648;2023-02-04T12:25:58;3.97;;;1.58;;
72261;SDS011;60173;52.112;8.648;2023-02-04T12:28:25;2.13;;;1.60;;
72261;SDS011;60173;52.112;8.648;2023-02-04T12:30:52;2.47;;;1.40;;
72261;SDS011;60173;52.112;8.648;2023-02-04T12:33:18;2.88;;;1.25;;
72261;SDS011;60173;52.112;8.648;2023-02-04T12:35:45;4.10;;;1.55;;
72261;SDS011;60173;52.112;8.648;2023-02-04T12:38:11;2.92;;;1.38;;
72261;SDS011;60173;52.112;8.648;2023-02-04T12:40:37;1.52;;;1.20;;
72261;SDS011;60173;52.112;8.648;2023-02-04T12:43:04;2.53;;;1.23;;
72261;SDS011;60173;52.112;8.648;2023-02-04T12:45:30;1.80;;;1.10;;
72261;SDS011;60173;52.112;8.648;2023-02-04T12:47:57;2.90;;;1.38;;
72261;SDS011;60173;52.112;8.648;2023-02-04T12:50:24;3.80;;;1.33;;
72261;SDS011;60173;52.112;8.648;2023-02-04T12:52:54;1.30;;;1.20;;
72261;SDS011;60173;52.112;8.648;2023-02-04T12:55:23;3.22;;;1.30;;
72261;SDS011;60173;52.112;8.648;2023-02-04T12:57:51;3.50;;;1.45;;
72261;SDS011;60173;52.112;8.648;2023-02-04T13:00:18;2.40;;;1.27;;
72261;SDS011;60173;52.112;8.648;2023-02-04T13:02:45;2.15;;;1.25;;
72261;SDS011;60173;52.112;8.648;2023-02-04T13:05:12;2.10;;;1.23;;
72261;SDS011;60173;52.112;8.648;2023-02-04T13:07:40;2.22;;;1.27;;
72261;SDS011;60173;52.112;8.648;2023-02-04T13:10:07;4.93;;;1.45;;
72261;SDS011;60173;52.112;8.648;2023-02-04T13:12:35;4.43;;;1.60;;
72261;SDS011;60173;52.112;8.648;2023-02-04T13:15:02;2.60;;;1.38;;
72261;SDS011;60173;52.112;8.648;2023-02-04T13:17:29;1.70;;;1.48;;
72261;SDS011;60173;52.112;8.648;2023-02-04T13:19:55;3.78;;;1.33;;
72261;SDS011;60173;52.112;8.648;2023-02-04T13:22:22;2.83;;;1.50;;
72261;SDS011;60173;52.112;8.648;2023-02-04T13:24:48;2.20;;;1.45;;
72261;SDS011;60173;52.112;8.648;2023-02-04T13:27:14;2.22;;;1.52;;
72261;SDS011;60173;52.112;8.648;2023-02-04T13:29:41;2.25;;;1.52;;
72261;SDS011;60173;52.112;8.648;2023-02-04T13:32:12;2.08;;;1.30;;
72261;SDS011;60173;52.112;8.648;2023-02-04T13:34:40;4.53;;;2.00;;
72261;SDS011;60173;52.112;8.648;2023-02-04T13:37:07;1.67;;;1.30;;
72261;SDS011;60173;52.112;8.648;2023-02-04T13:39:34;4.00;;;1.65;;
72261;SDS011;60173;52.112;8.648;2023-02-04T13:42:01;3.22;;;1.48;;
72261;SDS011;60173;52.112;8.648;2023-02-04T13:44:29;3.30;;;1.25;;
72261;SDS011;60173;52.112;8.648;2023-02-04T13:46:56;2.13;;;1.38;;
72261;SDS011;60173;52.112;8.648;2023-02-04T13:49:22;2.17;;;1.20;;
72261;SDS011;60173;52.112;8.648;2023-02-04T13:51:49;2.72;;;1.10;;
72261;SDS011;60173;52.112;8.648;2023-02-04T13:54:15;4.05;;;1.30;;
72261;SDS011;60173;52.112;8.648;2023-02-04T13:56:43;2.33;;;1.40;;
72261;SDS011;60173;52.112;8.648;2023-02-04T13:59:11;3.15;;;1.60;;
72261;SDS011;60173;52.112;8.648;2023-02-04T14:01:38;2.03;;;1.00;;
72261;SDS011;60173;52.112;8.648;2023-02-04T14:04:09;2.75;;;1.30;;
72261;SDS011;60173;52.112;8.648;2023-02-04T14:06:41;1.42;;;1.25;;
72261;SDS011;60173;52.112;8.648;2023-02-04T14:09:15;2.92;;;1.85;;
72261;SDS011;60173;52.112;8.648;2023-02-04T14:11:42;2.55;;;1.40;;
72261;SDS011;60173;52.112;8.648;2023-02-04T14:14:12;3.25;;;1.40;;
72261;SDS011;60173;52.112;8.648;2023-02-04T14:16:40;7.57;;;4.00;;
72261;SDS011;60173;52.112;8.648;2023-02-04T14:19:07;4.43;;;2.47;;
72261;SDS011;60173;52.112;8.648;2023-02-04T14:21:34;4.25;;;1.80;;
72261;SDS011;60173;52.112;8.648;2023-02-04T14:24:00;2.03;;;1.27;;
72261;SDS011;60173;52.112;8.648;2023-02-04T14:26:27;3.33;;;1.77;;
72261;SDS011;60173;52.112;8.648;2023-02-04T14:28:53;3.42;;;1.67;;
72261;SDS011;60173;52.112;8.648;2023-02-04T14:31:20;1.35;;;1.00;;
72261;SDS011;60173;52.112;8.648;2023-02-04T14:33:47;2.75;;;1.25;;
72261;SDS011;60173;52.112;8.648;2023-02-04T14:36:15;2.92;;;1.35;;
72261;SDS011;60173;52.112;8.648;2023-02-04T14:38:42;2.72;;;1.55;;
72261;SDS011;60173;52.112;8.648;2023-02-04T14:41:08;3.03;;;1.20;;
72261;SDS011;60173;52.112;8.648;2023-02-04T14:43:34;1.80;;;1.20;;
72261;SDS011;60173;52.112;8.648;2023-02-04T14:46:04;2.88;;;1.77;;
72261;SDS011;60173;52.112;8.648;2023-02-04T14:48:31;1.45;;;1.30;;
72261;SDS011;60173;52.112;8.648;2023-02-04T14:51:01;3.92;;;1.35;;
72261;SDS011;60173;52.112;8.648;2023-02-04T14:53:28;2.40;;;1.60;;